sensor_id;sensor_type;location;lat;lon;timestamp;P1;durP1;ratioP1;P2;durP2;ratioP2
26391;SDS011;14572;43.120;1.178;2024-02-23T00:00:46;11.60;;;1.60;;
26391;SDS011;14572;43.120;1.178;2024-02-23T00:03:13;7.70;;;1.20;;
26391;SDS011;14572;43.120;1.178;2024-02-23T00:05:40;6.97;;;1.55;;
26391;SDS011;14572;43.120;1.178;2024-02-23T00:08:07;9.93;;;1.63;;
26391;SDS011;14572;43.120;1.178;2024-02-23T00:10:36;4.60;;;1.20;;
26391;SDS011;14572;43.120;1.178;2024-02-23T00:13:04;7.32;;;1.30;;
26391;SDS011;14572;43.120;1.178;2024-02-23T00:15:31;4.95;;;1.38;;
26391;SDS011;14572;43.120;1.178;2024-02-23T00:18:02;6.07;;;1.50;;
26391;SDS011;14572;43.120;1.178;2024-02-23T00:20:31;4.40;;;1.52;;
26391;SDS011;14572;43.120;1.178;2024-02-23T00:23:01;7.70;;;1.58;;
26391;SDS011;14572;43.120;1.178;2024-02-23T00:25:29;10.30;;;1.88;;
26391;SDS011;14572;43.120;1.178;2024-02-23T00:27:56;5.75;;;1.88;;
26391;SDS011;14572;43.120;1.178;2024-02-23T00:30:23;4.82;;;1.65;;
26391;SDS011;14572;43.120;1.178;2024-02-23T00:32:49;7.57;;;2.20;;
26391;SDS011;14572;43.120;1.178;2024-02-23T00:35:19;11.15;;;2.63;;
26391;SDS011;14572;43.120;1.178;2024-02-23T00:37:53;7.22;;;2.15;;
26391;SDS011;14572;43.120;1.178;2024-02-23T00:40:26;5.60;;;1.90;;
26391;SDS011;14572;43.120;1.178;2024-02-23T00:42:58;5.47;;;1.77;;
26391;SDS011;14572;43.120;1.178;2024-02-23T00:45:28;5.95;;;2.22;;
26391;SDS011;14572;43.120;1.178;2024-02-23T00:47:55;10.10;;;2.30;;
26391;SDS011;14572;43.120;1.178;2024-02-23T00:50:23;8.90;;;1.75;;
26391;SDS011;14572;43.120;1.178;2024-02-23T00:53:00;11.38;;;2.17;;
26391;SDS011;14572;43.120;1.178;2024-02-23T00:55:29;5.80;;;1.45;;
26391;SDS011;14572;43.120;1.178;2024-02-23T00:57:56;8.35;;;1.73;;
26391;SDS011;14572;43.120;1.178;2024-02-23T01:00:24;8.80;;;1.63;;
26391;SDS011;14572;43.120;1.178;2024-02-23T01:02:53;7.43;;;1.92;;
26391;SDS011;14572;43.120;1.178;2024-02-23T01:05:26;7.32;;;2.17;;
26391;SDS011;14572;43.120;1.178;2024-02-23T01:07:55;4.15;;;1.23;;
26391;SDS011;14572;43.120;1.178;2024-02-23T01:10:22;3.78;;;1.30;;
26391;SDS011;14572;43.120;1.178;2024-02-23T01:12:49;9.00;;;1.33;;
26391;SDS011;14572;43.120;1.178;2024-02-23T01:15:22;4.53;;;1.17;;
26391;SDS011;14572;43.120;1.178;2024-02-23T01:17:49;5.00;;;1.38;;
26391;SDS011;14572;43.120;1.178;2024-02-23T01:20:22;4.53;;;1.50;;
26391;SDS011;14572;43.120;1.178;2024-02-23T01:23:02;8.73;;;2.00;;
26391;SDS011;14572;43.120;1.178;2024-02-23T01:25:29;4.28;;;1.25;;
26391;SDS011;14572;43.120;1.178;2024-02-23T01:28:02;5.00;;;1.33;;
26391;SDS011;14572;43.120;1.178;2024-02-23T01:30:30;6.32;;;1.27;;
26391;SDS011;14572;43.120;1.178;2024-02-23T01:32:59;6.40;;;1.15;;
26391;SDS011;14572;43.120;1.178;2024-02-23T01:35:27;5.00;;;0.90;;
26391;SDS011;14572;43.120;1.178;2024-02-23T01:37:59;3.72;;;0.85;;
26391;SDS011;14572;43.120;1.178;2024-02-23T01:40:26;7.55;;;1.42;;
26391;SDS011;14572;43.120;1.178;2024-02-23T01:43:02;3.72;;;1.00;;
26391;SDS011;14572;43.120;1.178;2024-02-23T01:45:32;9.00;;;1.58;;
26391;SDS011;14572;43.120;1.178;2024-02-23T01:47:59;5.53;;;1.17;;
26391;SDS011;14572;43.120;1.178;2024-02-23T01:50:34;7.78;;;1.10;;
26391;SDS011;14572;43.120;1.178;2024-02-23T01:53:03;10.50;;;1.10;;
26391;SDS011;14572;43.120;1.178;2024-02-23T01:55:31;8.32;;;1.08;;
26391;SDS011;14572;43.120;1.178;2024-02-23T01:57:59;4.00;;;0.90;;
26391;SDS011;14572;43.120;1.178;2024-02-23T02:00:26;2.42;;;0.50;;
26391;SDS011;14572;43.120;1.178;2024-02-23T02:02:53;8.90;;;1.27;;
26391;SDS011;14572;43.120;1.178;2024-02-23T02:05:22;6.00;;;0.88;;
26391;SDS011;14572;43.120;1.178;2024-02-23T02:07:49;4.35;;;0.90;;
26391;SDS011;14572;43.120;1.178;2024-02-23T02:10:20;4.72;;;0.80;;
26391;SDS011;14572;43.120;1.178;2024-02-23T02:12:48;4.28;;;0.80;;
26391;SDS011;14572;43.120;1.178;2024-02-23T02:15:15;4.80;;;0.63;;
26391;SDS011;14572;43.120;1.178;2024-02-23T02:17:42;11.38;;;1.42;;
26391;SDS011;14572;43.120;1.178;2024-02-23T02:20:11;10.35;;;1.60;;
26391;SDS011;14572;43.120;1.178;2024-02-23T02:22:38;10.35;;;1.17;;
26391;SDS011;14572;43.120;1.178;2024-02-23T02:25:06;5.75;;;1.05;;
26391;SDS011;14572;43.120;1.178;2024-02-23T02:27:34;15.00;;;1.70;;
26391;SDS011;14572;43.120;1.178;2024-02-23T02:30:01;9.93;;;1.00;;
26391;SDS011;14572;43.120;1.178;2024-02-23T02:32:30;16.00;;;1.48;;
26391;SDS011;14572;43.120;1.178;2024-02-23T02:35:03;11.25;;;0.98;;
26391;SDS011;14572;43.120;1.178;2024-02-23T02:37:39;10.63;;;1.60;;
26391;SDS011;14572;43.120;1.178;2024-02-23T02:40:07;8.02;;;1.17;;
26391;SDS011;14572;43.120;1.178;2024-02-23T02:42:42;13.30;;;1.50;;
26391;SDS011;14572;43.120;1.178;2024-02-23T02:45:21;7.68;;;1.55;;
26391;SDS011;14572;43.120;1.178;2024-02-23T02:47:48;8.85;;;1.30;;
26391;SDS011;14572;43.120;1.178;2024-02-23T02:50:15;13.77;;;1.55;;
26391;SDS011;14572;43.120;1.178;2024-02-23T02:52:45;7.38;;;0.88;;
26391;SDS011;14572;43.120;1.178;2024-02-23T02:55:12;13.85;;;1.27;;
26391;SDS011;14572;43.120;1.178;2024-02-23T02:57:45;9.00;;;0.98;;
26391;SDS011;14572;43.120;1.178;2024-02-23T03:00:12;7.03;;;1.35;;
26391;SDS011;14572;43.120;1.178;2024-02-23T03:02:39;10.50;;;0.85;;
26391;SDS011;14572;43.120;1.178;2024-02-23T03:05:08;8.48;;;1.13;;
26391;SDS011;14572;43.120;1.178;2024-02-23T03:07:35;12.00;;;1.73;;
26391;SDS011;14572;43.120;1.178;2024-02-23T03:10:02;12.00;;;1.63;;
26391;SDS011;14572;43.120;1.178;2024-02-23T03:12:30;5.30;;;1.20;;
26391;SDS011;14572;43.120;1.178;2024-02-23T03:14:59;8.27;;;0.95;;
26391;SDS011;14572;43.120;1.178;2024-02-23T03:17:33;9.65;;;1.00;;
26391;SDS011;14572;43.120;1.178;2024-02-23T03:20:00;11.63;;;1.55;;
26391;SDS011;14572;43.120;1.178;2024-02-23T03:22:27;8.07;;;1.30;;
26391;SDS011;14572;43.120;1.178;2024-02-23T03:24:54;8.77;;;1.27;;
26391;SDS011;14572;43.120;1.178;2024-02-23T03:27:21;7.10;;;1.52;;
26391;SDS011;14572;43.120;1.178;2024-02-23T03:29:54;9.75;;;1.23;;
26391;SDS011;14572;43.120;1.178;2024-02-23T03:32:26;8.13;;;1.02;;
26391;SDS011;14572;43.120;1.178;2024-02-23T03:34:53;5.95;;;0.95;;
26391;SDS011;14572;43.120;1.178;2024-02-23T03:37:20;13.35;;;0.90;;
26391;SDS011;14572;43.120;1.178;2024-02-23T03:39:52;5.65;;;0.90;;
26391;SDS011;14572;43.120;1.178;2024-02-23T03:42:21;8.30;;;1.40;;
26391;SDS011;14572;43.120;1.178;2024-02-23T03:44:48;5.28;;;0.93;;
26391;SDS011;14572;43.120;1.178;2024-02-23T03:47:21;9.60;;;1.30;;
26391;SDS011;14572;43.120;1.178;2024-02-23T03:49:49;6.15;;;1.10;;
26391;SDS011;14572;43.120;1.178;2024-02-23T03:52:16;7.00;;;1.08;;
26391;SDS011;14572;43.120;1.178;2024-02-23T03:54:43;12.50;;;1.88;;
26391;SDS011;14572;43.120;1.178;2024-02-23T03:57:11;15.32;;;1.55;;
26391;SDS011;14572;43.120;1.178;2024-02-23T03:59:50;7.78;;;1.20;;
26391;SDS011;14572;43.120;1.178;2024-02-23T04:02:32;6.55;;;0.90;;
26391;SDS011;14572;43.120;1.178;2024-02-23T04:05:00;14.25;;;1.02;;
26391;SDS011;14572;43.120;1.178;2024-02-23T04:07:27;6.53;;;1.60;;
26391;SDS011;14572;43.120;1.178;2024-02-23T04:09:54;10.23;;;1.23;;
26391;SDS011;14572;43.120;1.178;2024-02-23T04:12:21;8.63;;;1.70;;
26391;SDS011;14572;43.120;1.178;2024-02-23T04:14:48;11.73;;;1.33;;
26391;SDS011;14572;43.120;1.178;2024-02-23T04:17:15;12.27;;;1.40;;
26391;SDS011;14572;43.120;1.178;2024-02-23T04:19:45;5.65;;;1.42;;
26391;SDS011;14572;43.120;1.178;2024-02-23T04:22:12;12.80;;;1.70;;
26391;SDS011;14572;43.120;1.178;2024-02-23T04:24:39;9.20;;;1.45;;
26391;SDS011;14572;43.120;1.178;2024-02-23T04:27:07;6.93;;;1.08;;
26391;SDS011;14572;43.120;1.178;2024-02-23T04:29:34;6.22;;;1.00;;
26391;SDS011;14572;43.120;1.178;2024-02-23T04:32:04;4.50;;;1.38;;
26391;SDS011;14572;43.120;1.178;2024-02-23T04:34:34;14.32;;;1.80;;
26391;SDS011;14572;43.120;1.178;2024-02-23T04:37:03;7.30;;;1.23;;
26391;SDS011;14572;43.120;1.178;2024-02-23T04:39:36;14.80;;;1.50;;
26391;SDS011;14572;43.120;1.178;2024-02-23T04:42:06;11.43;;;1.35;;
26391;SDS011;14572;43.120;1.178;2024-02-23T04:44:33;8.38;;;1.13;;
26391;SDS011;14572;43.120;1.178;2024-02-23T04:47:05;9.38;;;1.35;;
26391;SDS011;14572;43.120;1.178;2024-02-23T04:49:34;6.28;;;1.10;;
26391;SDS011;14572;43.120;1.178;2024-02-23T04:52:02;7.47;;;1.02;;
26391;SDS011;14572;43.120;1.178;2024-02-23T04:54:33;6.28;;;1.17;;
26391;SDS011;14572;43.120;1.178;2024-02-23T04:57:01;13.68;;;1.92;;
26391;SDS011;14572;43.120;1.178;2024-02-23T04:59:29;5.30;;;1.33;;
26391;SDS011;14572;43.120;1.178;2024-02-23T05:02:06;4.05;;;0.77;;
26391;SDS011;14572;43.120;1.178;2024-02-23T05:04:33;6.75;;;1.33;;
26391;SDS011;14572;43.120;1.178;2024-02-23T05:07:05;5.43;;;0.95;;
26391;SDS011;14572;43.120;1.178;2024-02-23T05:09:32;10.98;;;1.23;;
26391;SDS011;14572;43.120;1.178;2024-02-23T05:12:00;4.55;;;1.45;;
26391;SDS011;14572;43.120;1.178;2024-02-23T05:14:27;5.15;;;0.85;;
26391;SDS011;14572;43.120;1.178;2024-02-23T05:16:54;3.20;;;0.85;;
26391;SDS011;14572;43.120;1.178;2024-02-23T05:19:21;3.72;;;0.60;;
26391;SDS011;14572;43.120;1.178;2024-02-23T05:21:48;3.45;;;1.00;;
26391;SDS011;14572;43.120;1.178;2024-02-23T05:24:17;6.28;;;1.10;;
26391;SDS011;14572;43.120;1.178;2024-02-23T05:26:43;9.85;;;0.93;;
26391;SDS011;14572;43.120;1.178;2024-02-23T05:29:10;5.05;;;1.13;;
26391;SDS011;14572;43.120;1.178;2024-02-23T05:31:46;4.35;;;0.85;;
26391;SDS011;14572;43.120;1.178;2024-02-23T05:34:15;3.28;;;0.63;;
26391;SDS011;14572;43.120;1.178;2024-02-23T05:36:43;6.20;;;0.95;;
26391;SDS011;14572;43.120;1.178;2024-02-23T05:39:14;4.68;;;0.88;;
26391;SDS011;14572;43.120;1.178;2024-02-23T05:41:43;6.75;;;1.02;;
26391;SDS011;14572;43.120;1.178;2024-02-23T05:44:19;5.57;;;0.77;;
26391;SDS011;14572;43.120;1.178;2024-02-23T05:46:47;5.18;;;0.82;;
26391;SDS011;14572;43.120;1.178;2024-02-23T05:49:14;7.30;;;1.30;;
26391;SDS011;14572;43.120;1.178;2024-02-23T05:51:41;8.15;;;1.65;;
26391;SDS011;14572;43.120;1.178;2024-02-23T05:54:08;5.47;;;1.33;;
26391;SDS011;14572;43.120;1.178;2024-02-23T05:56:40;5.93;;;1.25;;
26391;SDS011;14572;43.120;1.178;2024-02-23T05:59:07;5.30;;;0.98;;
26391;SDS011;14572;43.120;1.178;2024-02-23T06:01:34;4.45;;;0.70;;
26391;SDS011;14572;43.120;1.178;2024-02-23T06:04:13;5.68;;;0.75;;
26391;SDS011;14572;43.120;1.178;2024-02-23T06:06:41;6.40;;;0.90;;
26391;SDS011;14572;43.120;1.178;2024-02-23T06:09:08;4.75;;;0.70;;
26391;SDS011;14572;43.120;1.178;2024-02-23T06:11:38;2.08;;;0.57;;
26391;SDS011;14572;43.120;1.178;2024-02-23T06:14:06;6.10;;;0.70;;
26391;SDS011;14572;43.120;1.178;2024-02-23T06:16:35;5.50;;;0.70;;
26391;SDS011;14572;43.120;1.178;2024-02-23T06:19:02;5.53;;;0.93;;
26391;SDS011;14572;43.120;1.178;2024-02-23T06:21:29;7.90;;;0.70;;
26391;SDS011;14572;43.120;1.178;2024-02-23T06:23:57;6.72;;;1.08;;
26391;SDS011;14572;43.120;1.178;2024-02-23T06:26:27;6.32;;;0.80;;
26391;SDS011;14572;43.120;1.178;2024-02-23T06:29:02;8.00;;;0.68;;
26391;SDS011;14572;43.120;1.178;2024-02-23T06:31:37;4.85;;;0.75;;
26391;SDS011;14572;43.120;1.178;2024-02-23T06:34:06;8.70;;;0.95;;
26391;SDS011;14572;43.120;1.178;2024-02-23T06:36:33;8.35;;;0.90;;
26391;SDS011;14572;43.120;1.178;2024-02-23T06:39:00;9.55;;;0.77;;
26391;SDS011;14572;43.120;1.178;2024-02-23T06:41:28;4.57;;;0.57;;
26391;SDS011;14572;43.120;1.178;2024-02-23T06:43:55;2.60;;;0.60;;
26391;SDS011;14572;43.120;1.178;2024-02-23T06:46:23;10.02;;;0.80;;
26391;SDS011;14572;43.120;1.178;2024-02-23T06:48:52;8.02;;;0.80;;
26391;SDS011;14572;43.120;1.178;2024-02-23T06:51:21;9.73;;;0.98;;
26391;SDS011;14572;43.120;1.178;2024-02-23T06:54:00;5.47;;;0.70;;
26391;SDS011;14572;43.120;1.178;2024-02-23T06:56:28;5.82;;;0.60;;
26391;SDS011;14572;43.120;1.178;2024-02-23T06:58:55;8.35;;;0.98;;
26391;SDS011;14572;43.120;1.178;2024-02-23T07:01:22;6.25;;;0.80;;
26391;SDS011;14572;43.120;1.178;2024-02-23T07:03:50;8.60;;;1.42;;
26391;SDS011;14572;43.120;1.178;2024-02-23T07:06:19;3.78;;;0.80;;
26391;SDS011;14572;43.120;1.178;2024-02-23T07:08:46;5.97;;;1.10;;
26391;SDS011;14572;43.120;1.178;2024-02-23T07:11:13;5.32;;;1.00;;
26391;SDS011;14572;43.120;1.178;2024-02-23T07:13:42;6.75;;;0.90;;
26391;SDS011;14572;43.120;1.178;2024-02-23T07:16:09;5.70;;;0.93;;
26391;SDS011;14572;43.120;1.178;2024-02-23T07:18:36;3.08;;;0.77;;
26391;SDS011;14572;43.120;1.178;2024-02-23T07:21:05;3.08;;;0.65;;
26391;SDS011;14572;43.120;1.178;2024-02-23T07:23:32;3.65;;;0.80;;
26391;SDS011;14572;43.120;1.178;2024-02-23T07:25:59;7.40;;;0.90;;
26391;SDS011;14572;43.120;1.178;2024-02-23T07:28:26;2.85;;;0.50;;
26391;SDS011;14572;43.120;1.178;2024-02-23T07:30:53;7.63;;;1.25;;
26391;SDS011;14572;43.120;1.178;2024-02-23T07:33:20;8.60;;;0.98;;
26391;SDS011;14572;43.120;1.178;2024-02-23T07:35:47;9.50;;;0.88;;
26391;SDS011;14572;43.120;1.178;2024-02-23T07:38:16;3.05;;;0.68;;
26391;SDS011;14572;43.120;1.178;2024-02-23T07:40:44;6.28;;;0.50;;
26391;SDS011;14572;43.120;1.178;2024-02-23T07:43:11;5.00;;;0.73;;
26391;SDS011;14572;43.120;1.178;2024-02-23T07:45:39;5.88;;;1.23;;
26391;SDS011;14572;43.120;1.178;2024-02-23T07:48:06;4.57;;;0.50;;
26391;SDS011;14572;43.120;1.178;2024-02-23T07:50:33;3.53;;;0.93;;
26391;SDS011;14572;43.120;1.178;2024-02-23T07:53:01;3.08;;;0.95;;
26391;SDS011;14572;43.120;1.178;2024-02-23T07:55:30;2.10;;;0.73;;
26391;SDS011;14572;43.120;1.178;2024-02-23T07:57:58;5.38;;;1.42;;
26391;SDS011;14572;43.120;1.178;2024-02-23T08:00:26;6.53;;;2.00;;
26391;SDS011;14572;43.120;1.178;2024-02-23T08:02:53;6.32;;;2.47;;
26391;SDS011;14572;43.120;1.178;2024-02-23T08:05:22;5.95;;;1.67;;
26391;SDS011;14572;43.120;1.178;2024-02-23T08:07:49;3.20;;;2.10;;
26391;SDS011;14572;43.120;1.178;2024-02-23T08:10:16;3.17;;;1.92;;
26391;SDS011;14572;43.120;1.178;2024-02-23T08:12:44;7.20;;;2.60;;
26391;SDS011;14572;43.120;1.178;2024-02-23T08:15:11;6.10;;;2.55;;
26391;SDS011;14572;43.120;1.178;2024-02-23T08:17:38;5.25;;;2.70;;
26391;SDS011;14572;43.120;1.178;2024-02-23T08:20:06;5.75;;;2.55;;
26391;SDS011;14572;43.120;1.178;2024-02-23T08:22:33;4.65;;;2.05;;
26391;SDS011;14572;43.120;1.178;2024-02-23T08:25:00;6.40;;;1.70;;
26391;SDS011;14572;43.120;1.178;2024-02-23T08:27:27;6.47;;;1.45;;
26391;SDS011;14572;43.120;1.178;2024-02-23T08:29:56;4.95;;;2.17;;
26391;SDS011;14572;43.120;1.178;2024-02-23T08:32:23;5.32;;;1.27;;
26391;SDS011;14572;43.120;1.178;2024-02-23T08:34:50;8.35;;;1.55;;
26391;SDS011;14572;43.120;1.178;2024-02-23T08:37:18;6.50;;;1.20;;
26391;SDS011;14572;43.120;1.178;2024-02-23T08:39:44;4.18;;;1.05;;
26391;SDS011;14572;43.120;1.178;2024-02-23T08:42:11;3.17;;;0.80;;
26391;SDS011;14572;43.120;1.178;2024-02-23T08:44:38;9.30;;;1.90;;
26391;SDS011;14572;43.120;1.178;2024-02-23T08:47:07;4.57;;;1.30;;
26391;SDS011;14572;43.120;1.178;2024-02-23T08:49:34;6.78;;;1.60;;
26391;SDS011;14572;43.120;1.178;2024-02-23T08:52:01;5.53;;;1.60;;
26391;SDS011;14572;43.120;1.178;2024-02-23T08:54:29;3.47;;;1.75;;
26391;SDS011;14572;43.120;1.178;2024-02-23T08:56:56;7.25;;;2.55;;
26391;SDS011;14572;43.120;1.178;2024-02-23T08:59:23;6.45;;;2.55;;
26391;SDS011;14572;43.120;1.178;2024-02-23T09:01:50;4.90;;;2.10;;
26391;SDS011;14572;43.120;1.178;2024-02-23T09:04:18;11.60;;;2.33;;
26391;SDS011;14572;43.120;1.178;2024-02-23T09:06:45;5.45;;;2.50;;
26391;SDS011;14572;43.120;1.178;2024-02-23T09:09:14;6.47;;;2.83;;
26391;SDS011;14572;43.120;1.178;2024-02-23T09:11:41;9.32;;;2.88;;
26391;SDS011;14572;43.120;1.178;2024-02-23T09:14:08;6.60;;;3.13;;
26391;SDS011;14572;43.120;1.178;2024-02-23T09:16:35;6.50;;;3.22;;
26391;SDS011;14572;43.120;1.178;2024-02-23T09:19:02;5.57;;;2.63;;
26391;SDS011;14572;43.120;1.178;2024-02-23T09:21:31;4.60;;;2.70;;
26391;SDS011;14572;43.120;1.178;2024-02-23T09:23:58;5.05;;;3.10;;
26391;SDS011;14572;43.120;1.178;2024-02-23T09:26:25;4.85;;;2.60;;
26391;SDS011;14572;43.120;1.178;2024-02-23T09:28:52;4.63;;;3.15;;
26391;SDS011;14572;43.120;1.178;2024-02-23T09:31:19;4.20;;;2.70;;
26391;SDS011;14572;43.120;1.178;2024-02-23T09:33:46;4.75;;;2.78;;
26391;SDS011;14572;43.120;1.178;2024-02-23T09:36:14;6.55;;;3.03;;
26391;SDS011;14572;43.120;1.178;2024-02-23T09:38:43;6.18;;;3.33;;
26391;SDS011;14572;43.120;1.178;2024-02-23T09:41:11;5.10;;;2.95;;
26391;SDS011;14572;43.120;1.178;2024-02-23T09:43:44;4.13;;;3.20;;
26391;SDS011;14572;43.120;1.178;2024-02-23T09:46:13;4.10;;;3.00;;
26391;SDS011;14572;43.120;1.178;2024-02-23T09:48:40;9.93;;;3.45;;
26391;SDS011;14572;43.120;1.178;2024-02-23T09:51:08;7.35;;;3.03;;
26391;SDS011;14572;43.120;1.178;2024-02-23T09:53:37;4.68;;;3.05;;
26391;SDS011;14572;43.120;1.178;2024-02-23T09:56:06;6.35;;;3.30;;
26391;SDS011;14572;43.120;1.178;2024-02-23T09:58:34;5.22;;;2.92;;
26391;SDS011;14572;43.120;1.178;2024-02-23T10:01:02;10.68;;;3.65;;
26391;SDS011;14572;43.120;1.178;2024-02-23T10:03:29;7.90;;;3.33;;
26391;SDS011;14572;43.120;1.178;2024-02-23T10:05:57;7.90;;;3.20;;
26391;SDS011;14572;43.120;1.178;2024-02-23T10:08:26;5.47;;;3.22;;
26391;SDS011;14572;43.120;1.178;2024-02-23T10:10:54;3.47;;;3.08;;
26391;SDS011;14572;43.120;1.178;2024-02-23T10:13:23;9.63;;;2.47;;
26391;SDS011;14572;43.120;1.178;2024-02-23T10:15:50;4.90;;;2.58;;
26391;SDS011;14572;43.120;1.178;2024-02-23T10:18:17;3.75;;;2.72;;
26391;SDS011;14572;43.120;1.178;2024-02-23T10:20:44;3.50;;;2.00;;
26391;SDS011;14572;43.120;1.178;2024-02-23T10:23:11;6.50;;;2.50;;
26391;SDS011;14572;43.120;1.178;2024-02-23T10:25:38;2.92;;;2.35;;
26391;SDS011;14572;43.120;1.178;2024-02-23T10:28:06;4.45;;;2.20;;
26391;SDS011;14572;43.120;1.178;2024-02-23T10:30:36;5.65;;;2.53;;
26391;SDS011;14572;43.120;1.178;2024-02-23T10:33:04;5.97;;;2.60;;
26391;SDS011;14572;43.120;1.178;2024-02-23T10:35:31;2.88;;;1.60;;
26391;SDS011;14572;43.120;1.178;2024-02-23T10:38:03;2.70;;;1.70;;
26391;SDS011;14572;43.120;1.178;2024-02-23T10:40:32;3.42;;;2.05;;
26391;SDS011;14572;43.120;1.178;2024-02-23T10:43:02;2.88;;;2.30;;
26391;SDS011;14572;43.120;1.178;2024-02-23T10:45:29;7.85;;;2.10;;
26391;SDS011;14572;43.120;1.178;2024-02-23T10:47:58;4.85;;;2.45;;
26391;SDS011;14572;43.120;1.178;2024-02-23T10:50:25;2.88;;;1.70;;
26391;SDS011;14572;43.120;1.178;2024-02-23T10:52:53;4.95;;;1.95;;
26391;SDS011;14572;43.120;1.178;2024-02-23T10:55:20;5.90;;;1.98;;
26391;SDS011;14572;43.120;1.178;2024-02-23T10:57:48;3.25;;;1.35;;
26391;SDS011;14572;43.120;1.178;2024-02-23T11:00:16;3.17;;;2.00;;
26391;SDS011;14572;43.120;1.178;2024-02-23T11:02:45;2.33;;;1.90;;
26391;SDS011;14572;43.120;1.178;2024-02-23T11:05:16;2.22;;;2.00;;
26391;SDS011;14572;43.120;1.178;2024-02-23T11:07:43;4.90;;;2.20;;
26391;SDS011;14572;43.120;1.178;2024-02-23T11:10:14;2.40;;;2.20;;
26391;SDS011;14572;43.120;1.178;2024-02-23T11:12:41;3.65;;;2.20;;
26391;SDS011;14572;43.120;1.178;2024-02-23T11:15:09;2.28;;;1.85;;
26391;SDS011;14572;43.120;1.178;2024-02-23T11:17:52;3.28;;;0.50;;
26391;SDS011;14572;43.120;1.178;2024-02-23T11:20:21;1.65;;;0.40;;
26391;SDS011;14572;43.120;1.178;2024-02-23T11:22:51;1.55;;;0.40;;
26391;SDS011;14572;43.120;1.178;2024-02-23T11:25:19;2.35;;;0.40;;
26391;SDS011;14572;43.120;1.178;2024-02-23T11:27:49;2.33;;;0.40;;
26391;SDS011;14572;43.120;1.178;2024-02-23T11:30:16;0.68;;;0.10;;
26391;SDS011;14572;43.120;1.178;2024-02-23T11:32:44;0.50;;;0.15;;
26391;SDS011;14572;43.120;1.178;2024-02-23T11:35:13;1.02;;;0.30;;
26391;SDS011;14572;43.120;1.178;2024-02-23T11:37:45;1.45;;;0.30;;
26391;SDS011;14572;43.120;1.178;2024-02-23T11:40:12;0.88;;;0.20;;
26391;SDS011;14572;43.120;1.178;2024-02-23T11:42:40;1.17;;;0.20;;
26391;SDS011;14572;43.120;1.178;2024-02-23T11:45:09;0.93;;;0.20;;
26391;SDS011;14572;43.120;1.178;2024-02-23T11:47:36;2.08;;;0.68;;
26391;SDS011;14572;43.120;1.178;2024-02-23T11:50:03;1.38;;;0.28;;
26391;SDS011;14572;43.120;1.178;2024-02-23T11:52:31;1.23;;;0.30;;
26391;SDS011;14572;43.120;1.178;2024-02-23T11:55:00;1.67;;;0.30;;
26391;SDS011;14572;43.120;1.178;2024-02-23T11:57:27;1.75;;;0.25;;
26391;SDS011;14572;43.120;1.178;2024-02-23T11:59:54;1.40;;;0.20;;
26391;SDS011;14572;43.120;1.178;2024-02-23T12:02:21;0.93;;;0.30;;
26391;SDS011;14572;43.120;1.178;2024-02-23T12:04:50;0.98;;;0.45;;
26391;SDS011;14572;43.120;1.178;2024-02-23T12:07:17;0.75;;;0.20;;
26391;SDS011;14572;43.120;1.178;2024-02-23T12:09:46;2.33;;;0.35;;
26391;SDS011;14572;43.120;1.178;2024-02-23T12:12:14;0.85;;;0.25;;
26391;SDS011;14572;43.120;1.178;2024-02-23T12:14:41;1.55;;;0.40;;
26391;SDS011;14572;43.120;1.178;2024-02-23T12:17:08;1.40;;;0.30;;
26391;SDS011;14572;43.120;1.178;2024-02-23T12:19:37;1.00;;;0.20;;
26391;SDS011;14572;43.120;1.178;2024-02-23T12:22:05;5.55;;;3.53;;
26391;SDS011;14572;43.120;1.178;2024-02-23T12:24:32;4.30;;;3.80;;
26391;SDS011;14572;43.120;1.178;2024-02-23T12:26:59;3.75;;;3.53;;
26391;SDS011;14572;43.120;1.178;2024-02-23T12:29:27;3.40;;;3.20;;
26391;SDS011;14572;43.120;1.178;2024-02-23T12:32:02;4.03;;;3.72;;
26391;SDS011;14572;43.120;1.178;2024-02-23T12:34:29;3.63;;;3.30;;
26391;SDS011;14572;43.120;1.178;2024-02-23T12:36:56;3.67;;;3.47;;
26391;SDS011;14572;43.120;1.178;2024-02-23T12:39:23;3.60;;;3.30;;
26391;SDS011;14572;43.120;1.178;2024-02-23T12:41:50;3.42;;;3.10;;
26391;SDS011;14572;43.120;1.178;2024-02-23T12:44:17;3.00;;;2.80;;
26391;SDS011;14572;43.120;1.178;2024-02-23T12:46:45;3.22;;;3.00;;
26391;SDS011;14572;43.120;1.178;2024-02-23T12:49:12;3.08;;;2.80;;
26391;SDS011;14572;43.120;1.178;2024-02-23T12:51:41;3.20;;;2.80;;
26391;SDS011;14572;43.120;1.178;2024-02-23T12:54:08;3.15;;;2.55;;
26391;SDS011;14572;43.120;1.178;2024-02-23T12:56:35;3.00;;;2.80;;
26391;SDS011;14572;43.120;1.178;2024-02-23T12:59:02;2.85;;;2.65;;
26391;SDS011;14572;43.120;1.178;2024-02-23T13:01:29;3.10;;;2.70;;
26391;SDS011;14572;43.120;1.178;2024-02-23T13:04:00;3.40;;;2.50;;
26391;SDS011;14572;43.120;1.178;2024-02-23T13:06:27;3.30;;;2.40;;
26391;SDS011;14572;43.120;1.178;2024-02-23T13:08:54;2.80;;;2.60;;
26391;SDS011;14572;43.120;1.178;2024-02-23T13:11:21;2.67;;;2.47;;
26391;SDS011;14572;43.120;1.178;2024-02-23T13:13:48;3.80;;;2.90;;
26391;SDS011;14572;43.120;1.178;2024-02-23T13:16:15;3.03;;;2.65;;
26391;SDS011;14572;43.120;1.178;2024-02-23T13:18:42;3.38;;;2.40;;
26391;SDS011;14572;43.120;1.178;2024-02-23T13:21:13;3.35;;;3.15;;
26391;SDS011;14572;43.120;1.178;2024-02-23T13:23:40;3.08;;;2.40;;
26391;SDS011;14572;43.120;1.178;2024-02-23T13:26:08;4.13;;;2.80;;
26391;SDS011;14572;43.120;1.178;2024-02-23T13:28:35;4.03;;;2.80;;
26391;SDS011;14572;43.120;1.178;2024-02-23T13:31:03;4.38;;;2.80;;
26391;SDS011;14572;43.120;1.178;2024-02-23T13:33:30;3.28;;;2.75;;
26391;SDS011;14572;43.120;1.178;2024-02-23T13:35:56;3.10;;;2.90;;
26391;SDS011;14572;43.120;1.178;2024-02-23T13:38:25;2.92;;;2.72;;
26391;SDS011;14572;43.120;1.178;2024-02-23T13:40:52;3.20;;;3.00;;
26391;SDS011;14572;43.120;1.178;2024-02-23T13:43:19;3.20;;;3.00;;
26391;SDS011;14572;43.120;1.178;2024-02-23T13:45:49;3.10;;;2.90;;
26391;SDS011;14572;43.120;1.178;2024-02-23T13:48:17;3.20;;;3.00;;
26391;SDS011;14572;43.120;1.178;2024-02-23T13:50:44;4.53;;;3.30;;
26391;SDS011;14572;43.120;1.178;2024-02-23T13:53:11;3.60;;;3.30;;
26391;SDS011;14572;43.120;1.178;2024-02-23T13:55:40;3.10;;;2.90;;
26391;SDS011;14572;43.120;1.178;2024-02-23T13:58:08;2.78;;;2.63;;
26391;SDS011;14572;43.120;1.178;2024-02-23T14:00:35;3.10;;;2.90;;
26391;SDS011;14572;43.120;1.178;2024-02-23T14:03:01;3.00;;;2.80;;
26391;SDS011;14572;43.120;1.178;2024-02-23T14:05:29;3.10;;;2.90;;
26391;SDS011;14572;43.120;1.178;2024-02-23T14:07:56;3.00;;;2.80;;
26391;SDS011;14572;43.120;1.178;2024-02-23T14:10:23;3.20;;;3.00;;
26391;SDS011;14572;43.120;1.178;2024-02-23T14:12:51;3.50;;;3.30;;
26391;SDS011;14572;43.120;1.178;2024-02-23T14:15:18;2.95;;;2.80;;
26391;SDS011;14572;43.120;1.178;2024-02-23T14:17:45;3.03;;;2.83;;
26391;SDS011;14572;43.120;1.178;2024-02-23T14:20:12;3.05;;;2.80;;
26391;SDS011;14572;43.120;1.178;2024-02-23T14:22:39;3.85;;;2.83;;
26391;SDS011;14572;43.120;1.178;2024-02-23T14:25:06;3.38;;;3.17;;
26391;SDS011;14572;43.120;1.178;2024-02-23T14:27:35;3.10;;;2.90;;
26391;SDS011;14572;43.120;1.178;2024-02-23T14:30:03;3.13;;;3.03;;
26391;SDS011;14572;43.120;1.178;2024-02-23T14:32:31;3.78;;;3.47;;
26391;SDS011;14572;43.120;1.178;2024-02-23T14:34:58;3.13;;;2.92;;
26391;SDS011;14572;43.120;1.178;2024-02-23T14:37:26;3.30;;;3.10;;
26391;SDS011;14572;43.120;1.178;2024-02-23T14:39:53;3.30;;;3.03;;
26391;SDS011;14572;43.120;1.178;2024-02-23T14:42:20;3.40;;;3.10;;
26391;SDS011;14572;43.120;1.178;2024-02-23T14:44:47;3.20;;;3.00;;
26391;SDS011;14572;43.120;1.178;2024-02-23T14:47:16;3.45;;;2.90;;
26391;SDS011;14572;43.120;1.178;2024-02-23T14:49:43;4.80;;;3.00;;
26391;SDS011;14572;43.120;1.178;2024-02-23T14:52:10;3.50;;;3.10;;